Time;durP1;ratioP1;P1;durP2;ratioP2;P2;SDS_P1;SDS_P2;PMS_P1;PMS_P2;Temp;Humidity;BMP_temperature;BMP_pressure;BME280_temperature;BME280_humidity;BME280_pressure;Samples;Min_cycle;Max_cycle;Signal;HPM_P1;HPM_P2
2023/06/11 00:01:26;;;;;;;14.23;4.90;;;;;;;-143.84;78.71;45062.41;5110712;28;20865;-56
2023/06/11 00:03:54;;;;;;;7.37;5.17;;;;;;;-143.84;78.68;45062.41;5110602;28;20447;-56
2023/06/11 00:06:22;;;;;;;6.10;4.43;;;;;;;-143.84;78.51;45050.97;5110412;28;20450;-56
2023/06/11 00:08:51;;;;;;;6.60;5.30;;;;;;;-143.84;78.56;45073.81;5110622;28;20449;-56
2023/06/11 00:11:18;;;;;;;7.03;4.87;;;;;;;-143.84;78.61;45071.91;5110842;28;20448;-56
2023/06/11 00:13:45;;;;;;;9.20;5.50;;;;;;;-143.84;78.74;45039.53;5110643;28;20450;-56
2023/06/11 00:16:15;;;;;;;11.10;5.60;;;;;;;-143.84;78.69;45064.31;5110579;28;20486;-56
2023/06/11 00:18:43;;;;;;;12.73;4.60;;;;;;;-143.84;78.57;45070.00;5110502;28;20433;-56
2023/06/11 00:21:11;;;;;;;10.00;5.80;;;;;;;-143.84;78.81;45054.78;5110483;28;20444;-56
2023/06/11 00:23:38;;;;;;;14.83;5.33;;;;;;;-143.84;78.98;45047.16;5110592;28;20486;-56
2023/06/11 00:26:06;;;;;;;10.90;4.70;;;;;;;-143.84;78.97;45068.13;5110533;28;20437;-56
2023/06/11 00:28:33;;;;;;;6.93;5.47;;;;;;;-143.84;79.25;45060.50;5110123;28;20443;-56
2023/06/11 00:31:01;;;;;;;7.40;5.20;;;;;;;-143.84;79.45;45047.16;5110306;28;20441;-56
2023/06/11 00:33:29;;;;;;;12.33;5.40;;;;;;;-143.84;79.61;45085.25;5110274;28;20478;-55
2023/06/11 00:35:56;;;;;;;12.67;5.40;;;;;;;-143.84;79.71;45037.66;5110121;28;20541;-55
2023/06/11 00:38:24;;;;;;;8.30;5.87;;;;;;;-143.84;80.09;45062.41;5110306;28;20495;-56
2023/06/11 00:40:51;;;;;;;8.73;5.43;;;;;;;-143.84;79.96;45047.16;5110203;28;20498;-55
2023/06/11 00:43:21;;;;;;;9.40;5.30;;;;;;;-143.84;80.08;45047.16;5110154;28;20492;-56
2023/06/11 00:45:50;;;;;;;9.43;5.13;;;;;;;-143.84;79.79;45049.06;5110033;28;20440;-56
2023/06/11 00:48:19;;;;;;;7.33;5.13;;;;;;;-143.84;79.74;45045.25;5110358;28;20792;-56
2023/06/11 00:50:49;;;;;;;14.20;5.57;;;;;;;-143.84;79.37;45062.41;5109806;28;20437;-56
2023/06/11 00:53:17;;;;;;;7.70;5.17;;;;;;;-143.84;79.15;45066.22;5109946;28;20486;-56
2023/06/11 00:55:45;;;;;;;9.87;5.23;;;;;;;-143.84;79.25;45056.69;5110005;28;20492;-56
2023/06/11 00:58:14;;;;;;;14.23;5.63;;;;;;;-143.84;79.30;45030.03;5109714;28;20442;-56
2023/06/11 01:00:45;;;;;;;9.70;4.80;;;;;;;-143.84;79.53;45049.06;5113957;28;20523;-56
2023/06/11 01:03:17;;;;;;;11.33;4.80;;;;;;;-143.84;79.47;45068.13;5114280;28;20523;-56
2023/06/11 01:05:53;;;;;;;10.03;5.47;;;;;;;-143.84;79.37;45075.72;5114262;28;20447;-56
2023/06/11 01:08:22;;;;;;;6.63;5.40;;;;;;;-143.84;78.94;45047.16;5114080;28;20486;-56
2023/06/11 01:10:49;;;;;;;6.40;5.43;;;;;;;-143.84;78.56;45071.91;5113980;28;20449;-56
2023/06/11 01:13:16;;;;;;;9.10;4.83;;;;;;;-143.84;77.98;45035.75;5113720;28;21174;-56
2023/06/11 01:15:43;;;;;;;8.30;4.97;;;;;;;-143.84;77.76;45073.81;5113952;28;20495;-56
2023/06/11 01:18:19;;;;;;;6.83;5.23;;;;;;;-143.84;77.63;45083.34;5114087;28;20498;-56
2023/06/11 01:21:01;;;;;;;20.10;4.57;;;;;;;-143.84;77.27;45056.69;5113971;28;20778;-56
2023/06/11 01:23:40;;;;;;;7.30;4.57;;;;;;;-143.84;77.49;45094.78;5113803;28;20473;-56
2023/06/11 01:26:42;;;;;;;11.70;5.40;;;;;;;-143.84;77.91;45068.13;5113408;28;20445;-56
2023/06/11 01:29:11;;;;;;;5.47;4.20;;;;;;;-143.84;78.31;45047.16;5113521;28;20445;-56
2023/06/11 01:31:41;;;;;;;10.23;5.33;;;;;;;-143.84;78.63;45052.88;5113577;28;20493;-56
2023/06/11 01:34:09;;;;;;;7.83;4.80;;;;;;;-143.84;78.61;45073.81;5113441;28;20932;-56
2023/06/11 01:36:39;;;;;;;14.33;4.50;;;;;;;-143.84;78.50;45060.50;5113288;28;20446;-55
2023/06/11 01:39:06;;;;;;;15.70;4.67;;;;;;;-143.84;78.40;45075.72;5113537;28;20441;-56
2023/06/11 01:41:33;;;;;;;9.80;4.57;;;;;;;-143.84;78.13;45052.88;5113241;28;20433;-56
2023/06/11 01:44:00;;;;;;;6.00;4.97;;;;;;;-143.84;78.06;45052.88;5113262;28;20441;-55
2023/06/11 01:46:29;;;;;;;10.33;4.93;;;;;;;-143.84;77.89;45064.31;5113501;28;20427;-56
2023/06/11 01:48:56;;;;;;;6.17;4.93;;;;;;;-143.84;78.14;45052.88;5113393;28;20434;-56
2023/06/11 01:51:23;;;;;;;5.43;4.93;;;;;;;-143.84;78.07;45037.66;5113014;28;20457;-56
2023/06/11 01:53:51;;;;;;;7.63;4.80;;;;;;;-143.84;78.02;45070.00;5113529;28;20449;-56
2023/06/11 01:56:18;;;;;;;5.83;4.30;;;;;;;-143.84;77.91;45052.88;5112722;28;21315;-56
2023/06/11 01:58:47;;;;;;;6.40;4.67;;;;;;;-143.84;78.43;45068.13;5113087;28;20430;-56
2023/06/11 02:01:14;;;;;;;7.13;5.17;;;;;;;-143.84;79.95;45045.25;5113173;28;20444;-56
2023/06/11 02:03:42;;;;;;;13.03;6.10;;;;;;;-143.84;83.91;45043.34;5112990;28;20446;-55
2023/06/11 02:06:10;;;;;;;13.73;6.90;;;;;;;-143.84;85.12;45003.38;5113030;28;20453;-56
2023/06/11 02:08:37;;;;;;;9.60;7.50;;;;;;;-143.84;85.99;44950.06;5112416;28;20513;-52
2023/06/11 02:11:04;;;;;;;16.20;7.23;;;;;;;-143.84;86.73;44942.44;5111936;28;20494;-50
2023/06/11 02:13:31;;;;;;;9.00;6.60;;;;;;;-143.84;86.54;44942.44;5112349;28;20427;-51
2023/06/11 02:15:59;;;;;;;12.07;6.13;;;;;;;-143.84;86.25;44934.81;5111573;28;20492;-51
2023/06/11 02:18:26;;;;;;;13.93;6.33;;;;;;;-143.84;86.32;44963.38;5112011;28;20443;-51
2023/06/11 02:20:55;;;;;;;9.27;6.87;;;;;;;-143.84;86.67;44932.91;5112148;28;20459;-52
2023/06/11 02:23:22;;;;;;;12.17;6.87;;;;;;;-143.84;86.53;44927.19;5112134;28;20452;-52
2023/06/11 02:25:49;;;;;;;18.83;6.70;;;;;;;-143.84;86.28;44946.25;5111712;28;20434;-51
2023/06/11 02:28:17;;;;;;;11.43;6.50;;;;;;;-143.84;86.45;44932.91;5112061;28;20503;-52
2023/06/11 02:30:44;;;;;;;10.57;6.97;;;;;;;-143.84;86.01;44915.78;5111909;28;20504;-51
2023/06/11 02:33:11;;;;;;;9.53;6.37;;;;;;;-143.84;86.28;44925.31;5111678;28;20438;-51
2023/06/11 02:35:38;;;;;;;12.67;7.47;;;;;;;-143.84;87.07;44896.75;5111587;28;20599;-51
2023/06/11 02:38:07;;;;;;;13.53;7.40;;;;;;;-143.84;87.38;44894.84;5111630;28;20442;-52
2023/06/11 02:40:34;;;;;;;15.23;7.27;;;;;;;-143.84;87.71;44862.47;5111643;28;20502;-50
2023/06/11 02:43:01;;;;;;;7.53;6.70;;;;;;;-143.84;88.30;44877.69;5111649;28;20494;-51
2023/06/11 02:45:28;;;;;;;21.27;8.00;;;;;;;-143.84;88.81;44826.28;5111717;28;20514;-51
2023/06/11 02:47:55;;;;;;;16.70;8.07;;;;;;;-143.84;88.68;44822.47;5111463;28;20562;-51
2023/06/11 02:50:22;;;;;;;12.37;7.73;;;;;;;-143.84;88.81;44793.91;5111368;28;20968;-52
2023/06/11 02:52:49;;;;;;;14.13;7.30;;;;;;;-143.84;88.95;44761.56;5111316;28;20437;-52
2023/06/11 02:55:18;;;;;;;17.60;7.87;;;;;;;-143.84;88.79;44767.25;5111137;28;20473;-51
2023/06/11 02:57:45;;;;;;;9.40;8.13;;;;;;;-143.84;89.07;44757.75;5111387;28;20453;-51
2023/06/11 03:00:13;;;;;;;8.13;6.80;;;;;;;-143.84;89.07;44774.88;5111158;28;20434;-51
2023/06/11 03:02:41;;;;;;;15.90;7.03;;;;;;;-143.84;88.68;44803.44;5111137;28;20499;-52
2023/06/11 03:05:09;;;;;;;10.77;7.37;;;;;;;-143.84;88.59;44830.09;5111017;28;20510;-52
2023/06/11 03:07:36;;;;;;;10.97;7.17;;;;;;;-143.84;88.30;44803.44;5110930;28;20434;-51
2023/06/11 03:10:03;;;;;;;9.10;6.90;;;;;;;-143.84;87.64;44883.41;5111025;28;20508;-52
2023/06/11 03:12:32;;;;;;;11.30;7.10;;;;;;;-143.84;87.33;44879.59;5110831;28;20881;-52
2023/06/11 03:14:59;;;;;;;8.50;6.60;;;;;;;-143.84;86.99;44889.13;5110696;28;20485;-51
2023/06/11 03:17:26;;;;;;;13.50;6.73;;;;;;;-143.84;86.56;44921.50;5110776;28;20449;-51
2023/06/11 03:19:53;;;;;;;9.50;7.70;;;;;;;-143.84;85.78;44942.44;5110669;28;21014;-52
2023/06/11 03:22:20;;;;;;;10.70;6.73;;;;;;;-143.84;85.51;44944.34;5110178;28;20515;-52
2023/06/11 03:24:47;;;;;;;11.70;5.97;;;;;;;-143.84;84.88;44953.88;5110631;28;20430;-51
2023/06/11 03:27:14;;;;;;;14.40;6.90;;;;;;;-143.84;84.32;44980.53;5110711;28;21181;-51
2023/06/11 03:29:43;;;;;;;8.37;5.87;;;;;;;-143.84;83.36;44997.66;5110686;28;20503;-51
2023/06/11 03:32:10;;;;;;;7.93;5.43;;;;;;;-143.84;82.76;44982.41;5110491;28;20451;-51
2023/06/11 03:34:37;;;;;;;11.13;5.53;;;;;;;-143.84;79.56;45012.88;5110532;28;20431;-52
2023/06/11 03:37:05;;;;;;;16.70;6.37;;;;;;;-143.84;75.79;45010.97;5110383;28;20504;-52
2023/06/11 03:39:32;;;;;;;11.37;5.80;;;;;;;-143.84;72.14;45054.78;5110525;28;20435;-51
2023/06/11 03:41:59;;;;;;;7.33;4.77;;;;;;;-143.84;67.67;45054.78;5110340;28;20481;-52
2023/06/11 03:44:27;;;;;;;12.07;5.30;;;;;;;-143.84;63.48;45012.88;5110479;28;20508;-52
2023/06/11 03:46:56;;;;;;;14.40;4.77;;;;;;;-143.84;60.95;45037.66;5110403;28;20443;-52
2023/06/11 03:49:23;;;;;;;7.93;5.67;;;;;;;-143.84;56.50;45030.03;5110112;28;20446;-52
2023/06/11 03:51:50;;;;;;;9.03;4.30;;;;;;;-143.84;54.55;45022.41;5110340;28;20844;-52
2023/06/11 03:54:17;;;;;;;12.83;4.87;;;;;;;-143.84;53.44;45012.88;5110420;28;20516;-53
2023/06/11 03:56:44;;;;;;;8.57;4.10;;;;;;;-143.84;52.38;44988.13;5110182;28;20539;-52
2023/06/11 03:59:11;;;;;;;12.77;5.00;;;;;;;-143.84;52.57;45020.50;5110242;28;20442;-52
2023/06/11 04:01:38;;;;;;;8.23;4.33;;;;;;;-143.84;51.87;45005.28;5109858;28;20442;-52
2023/06/11 04:04:07;;;;;;;8.57;4.07;;;;;;;-143.84;51.56;45026.22;5110281;28;20515;-52
2023/06/11 04:06:37;;;;;;;10.17;4.20;;;;;;;-143.84;51.32;45016.69;5110062;28;20446;-52
2023/06/11 04:09:05;;;;;;;18.30;5.00;;;;;;;-143.84;50.69;44980.53;5109982;28;20446;-52
2023/06/11 04:11:32;;;;;;;11.97;4.50;;;;;;;-143.84;50.33;44993.84;5109739;28;21222;-53
2023/06/11 04:13:59;;;;;;;8.03;4.43;;;;;;;-143.84;49.11;45003.38;5109746;28;20873;-52
2023/06/11 04:16:27;;;;;;;10.33;4.50;;;;;;;-143.84;48.64;44980.53;5109372;28;20483;-52
2023/06/11 04:18:54;;;;;;;5.33;3.67;;;;;;;-143.84;47.85;44978.63;5109987;28;20439;-52
2023/06/11 04:21:22;;;;;;;7.23;4.00;;;;;;;-143.84;46.97;44972.91;5109573;28;20432;-52
2023/06/11 04:23:49;;;;;;;15.70;4.03;;;;;;;-143.84;46.43;44999.56;5109651;28;20448;-52
2023/06/11 04:26:19;;;;;;;9.80;4.00;;;;;;;-143.84;45.14;44969.09;5109573;28;20506;-51
2023/06/11 04:28:48;;;;;;;6.33;3.50;;;;;;;-143.84;44.32;44980.53;5109435;28;20447;-52
2023/06/11 04:31:15;;;;;;;19.30;4.00;;;;;;;-143.84;43.92;44978.63;5109568;28;20480;-52
2023/06/11 04:33:43;;;;;;;20.27;4.17;;;;;;;-143.84;43.76;44953.88;5108684;28;20436;-52
2023/06/11 04:36:10;;;;;;;16.70;4.20;;;;;;;-143.84;43.42;44993.84;5109505;28;20481;-52
2023/06/11 04:38:44;;;;;;;5.87;3.60;;;;;;;-143.84;43.08;44951.97;5109462;28;20493;-52
2023/06/11 04:41:12;;;;;;;6.30;3.40;;;;;;;-143.84;43.08;44988.13;5109475;28;20437;-52
2023/06/11 04:43:39;;;;;;;12.40;3.50;;;;;;;-143.84;43.22;44972.91;5109815;28;20864;-53
2023/06/11 04:46:06;;;;;;;12.93;2.97;;;;;;;-143.84;43.31;44976.72;5109506;28;20807;-52
2023/06/11 04:48:34;;;;;;;9.70;3.97;;;;;;;-143.84;42.73;44980.53;5109425;28;20446;-52
2023/06/11 04:51:02;;;;;;;5.70;3.30;;;;;;;-143.84;43.05;44965.28;5109289;28;20449;-52
2023/06/11 04:53:30;;;;;;;27.53;4.07;;;;;;;-143.84;42.73;44951.97;5109048;28;20447;-52
2023/06/11 04:56:02;;;;;;;21.10;3.80;;;;;;;-143.84;42.64;44955.75;5109219;28;20485;-52
2023/06/11 04:58:30;;;;;;;10.30;3.73;;;;;;;-143.84;42.28;44965.28;5109431;28;20443;-52
2023/06/11 05:00:58;;;;;;;14.03;2.83;;;;;;;-143.84;41.52;44969.09;5109503;28;20431;-52
2023/06/11 05:03:26;;;;;;;15.00;3.57;;;;;;;-143.84;42.02;44950.06;5109066;28;20443;-52
2023/06/11 05:05:54;;;;;;;18.83;3.40;;;;;;;-143.84;42.06;44951.97;5109201;28;20528;-52
2023/06/11 05:08:25;;;;;;;22.03;4.50;;;;;;;-143.84;41.37;44957.66;5109143;28;20453;-52
2023/06/11 05:10:52;;;;;;;6.07;2.87;;;;;;;-143.84;40.94;44927.19;5109121;28;20446;-52
2023/06/11 05:13:24;;;;;;;18.90;3.23;;;;;;;-143.84;40.57;44951.97;5109339;28;20493;-52
2023/06/11 05:15:51;;;;;;;14.70;3.97;;;;;;;-143.84;40.55;44951.97;5109097;28;21319;-52
2023/06/11 05:18:19;;;;;;;11.33;3.50;;;;;;;-143.84;40.67;44957.66;5109319;28;20870;-53
2023/06/11 05:20:47;;;;;;;11.93;3.73;;;;;;;-143.84;40.59;44957.66;5109242;28;20494;-53
2023/06/11 05:23:15;;;;;;;15.90;3.57;;;;;;;-143.84;40.05;44942.44;5106591;28;20975;-53
2023/06/11 05:25:46;;;;;;;11.33;3.23;;;;;;;-143.84;40.17;44917.69;5106286;28;20444;-53
2023/06/11 05:28:14;;;;;;;13.93;3.50;;;;;;;-143.84;39.66;44944.34;5108682;28;20470;-53
2023/06/11 05:30:45;;;;;;;13.03;3.90;;;;;;;-143.84;40.18;44969.09;5107935;28;20470;-53
2023/06/11 05:33:13;;;;;;;9.13;3.30;;;;;;;-143.84;40.14;44951.97;5108325;28;20458;-53
2023/06/11 05:35:40;;;;;;;11.20;3.67;;;;;;;-143.84;39.25;44948.16;5106296;28;20479;-53
2023/06/11 05:38:08;;;;;;;12.40;3.60;;;;;;;-143.84;39.13;44919.59;5104861;28;20439;-53
2023/06/11 05:40:36;;;;;;;13.13;3.13;;;;;;;-143.84;38.21;44910.06;5108101;28;20458;-53
2023/06/11 05:43:03;;;;;;;15.83;3.20;;;;;;;-143.84;38.82;44923.41;5106606;28;20527;-53
2023/06/11 05:45:31;;;;;;;8.00;3.60;;;;;;;-143.84;38.21;44898.66;5108993;28;21002;-53
2023/06/11 05:48:00;;;;;;;10.67;4.20;;;;;;;-143.84;38.60;44934.81;5112048;28;20454;-53
2023/06/11 05:50:28;;;;;;;9.33;3.63;;;;;;;-143.84;39.35;44913.88;5112524;28;20520;-53
2023/06/11 05:52:55;;;;;;;19.33;3.50;;;;;;;-143.84;39.08;44911.97;5112430;28;20443;-53
2023/06/11 05:55:22;;;;;;;19.20;4.20;;;;;;;-143.84;39.38;44915.78;5111304;28;20446;-53
2023/06/11 05:57:49;;;;;;;10.20;3.73;;;;;;;-143.84;39.37;44932.91;5112233;28;20440;-53
2023/06/11 06:00:17;;;;;;;15.97;4.13;;;;;;;-143.84;39.27;44921.50;5107842;28;20864;-52
2023/06/11 06:02:44;;;;;;;11.37;3.73;;;;;;;-143.84;39.57;44927.19;5111032;28;20444;-54
2023/06/11 06:05:15;;;;;;;17.03;4.20;;;;;;;-143.84;40.21;44908.16;5109444;28;20450;-53
2023/06/11 06:07:42;;;;;;;7.00;3.80;;;;;;;-143.84;39.50;44940.53;5111510;28;20961;-53
2023/06/11 06:10:09;;;;;;;7.27;3.63;;;;;;;-143.84;38.86;44919.59;5107806;28;20443;-53
2023/06/11 06:12:37;;;;;;;17.30;4.40;;;;;;;-143.84;40.07;44913.88;5109098;28;20889;-53
2023/06/11 06:15:04;;;;;;;7.37;3.87;;;;;;;-143.84;40.08;44908.16;5109314;28;20479;-53
2023/06/11 06:17:32;;;;;;;9.30;3.87;;;;;;;-143.84;39.16;44919.59;5111242;28;20479;-53
2023/06/11 06:19:59;;;;;;;12.73;3.93;;;;;;;-143.84;40.14;44942.44;5111464;28;20448;-53
2023/06/11 06:22:28;;;;;;;14.67;4.00;;;;;;;-143.84;38.49;44900.53;5111662;28;20941;-53
2023/06/11 06:24:55;;;;;;;9.73;3.57;;;;;;;-143.84;38.20;44919.59;5107309;28;20983;-53
2023/06/11 06:27:22;;;;;;;9.40;2.93;;;;;;;-143.84;37.38;44898.66;5111435;28;20447;-53
2023/06/11 06:29:50;;;;;;;11.80;3.47;;;;;;;-143.84;36.63;44917.69;5111390;28;20436;-53
2023/06/11 06:32:17;;;;;;;9.43;2.90;;;;;;;-143.84;36.95;44908.16;5111141;28;20447;-53
2023/06/11 06:34:44;;;;;;;9.47;3.23;;;;;;;-143.84;37.01;44889.13;5109871;28;20977;-53
2023/06/11 06:37:11;;;;;;;9.40;3.40;;;;;;;-143.84;36.99;44892.94;5111323;28;20839;-53
2023/06/11 06:39:40;;;;;;;5.07;2.77;;;;;;;-143.84;36.78;44898.66;5111400;28;20468;-53
2023/06/11 06:42:08;;;;;;;10.33;3.00;;;;;;;-143.84;35.09;44898.66;5110989;28;20444;-53
2023/06/11 06:44:35;;;;;;;5.30;2.70;;;;;;;-143.84;34.76;44881.50;5107485;28;21010;-53
2023/06/11 06:47:02;;;;;;;8.87;2.83;;;;;;;-143.84;34.43;44923.41;5111190;28;20508;-53
2023/06/11 06:49:29;;;;;;;11.27;3.00;;;;;;;-143.84;34.34;44931.00;5110951;28;20439;-53
2023/06/11 06:51:56;;;;;;;10.50;2.70;;;;;;;-143.84;34.49;44898.66;5111138;28;20452;-53
2023/06/11 06:54:23;;;;;;;3.87;2.37;;;;;;;-143.84;33.33;44908.16;5109239;28;20496;-52
2023/06/11 06:56:52;;;;;;;10.80;2.57;;;;;;;-143.84;33.54;44904.34;5109731;28;20981;-53
2023/06/11 06:59:19;;;;;;;11.60;2.70;;;;;;;-143.84;35.36;44889.13;5110725;28;20456;-53
2023/06/11 07:01:46;;;;;;;6.67;2.57;;;;;;;-143.84;33.62;44911.97;5109194;28;20451;-53
2023/06/11 07:04:13;;;;;;;7.87;3.50;;;;;;;-143.84;33.59;44904.34;5111347;28;20879;-53
2023/06/11 07:06:42;;;;;;;6.90;3.43;;;;;;;-143.84;33.57;44877.69;5111330;28;20440;-53
2023/06/11 07:09:09;;;;;;;15.83;3.50;;;;;;;-143.84;34.28;44896.75;5111028;28;20933;-53
2023/06/11 07:11:37;;;;;;;7.20;3.63;;;;;;;-143.84;33.87;44887.22;5111023;28;20439;-53
2023/06/11 07:14:05;;;;;;;13.67;3.00;;;;;;;-143.84;35.13;44911.97;5111387;28;20444;-53
2023/06/11 07:16:33;;;;;;;9.40;3.50;;;;;;;-143.84;33.00;44906.25;5110875;28;21293;-53
2023/06/11 07:19:00;;;;;;;8.33;3.13;;;;;;;-143.84;33.48;44879.59;5110662;28;21301;-53
2023/06/11 07:21:28;;;;;;;5.97;3.23;;;;;;;-143.84;34.23;44864.38;5104132;28;20451;-53
2023/06/11 07:23:55;;;;;;;10.53;3.07;;;;;;;-143.84;34.22;44877.69;5110812;28;20427;-53
2023/06/11 07:26:22;;;;;;;4.27;2.77;;;;;;;-143.84;34.72;44873.88;5109970;28;20473;-53
2023/06/11 07:28:49;;;;;;;10.30;4.03;;;;;;;-143.84;36.69;44879.59;5110440;28;20515;-53
2023/06/11 07:31:18;;;;;;;8.23;3.43;;;;;;;-143.84;36.58;44894.84;5106216;28;20529;-53
2023/06/11 07:33:45;;;;;;;14.17;3.70;;;;;;;-143.84;37.27;44881.50;5107505;28;20458;-53
2023/06/11 07:36:12;;;;;;;30.13;4.17;;;;;;;-143.84;36.85;44885.31;5109867;28;20443;-53
2023/06/11 07:38:39;;;;;;;14.20;4.03;;;;;;;-143.84;38.39;44889.13;5110563;28;20444;-53
2023/06/11 07:41:06;;;;;;;8.10;3.37;;;;;;;-143.84;37.61;44894.84;5102770;28;21011;-53
2023/06/11 07:43:33;;;;;;;7.50;4.30;;;;;;;-143.84;37.33;44911.97;5105978;28;20443;-53
2023/06/11 07:46:01;;;;;;;6.00;3.70;;;;;;;-143.84;37.84;44896.75;5109694;28;20446;-53
2023/06/11 07:48:30;;;;;;;12.90;4.07;;;;;;;-143.84;37.30;44923.41;5109715;28;20538;-52
2023/06/11 07:50:58;;;;;;;16.13;3.63;;;;;;;-143.84;37.36;44896.75;5109497;28;20444;-53
2023/06/11 07:53:25;;;;;;;6.30;2.90;;;;;;;-143.84;37.64;44885.31;5109495;28;20500;-53
2023/06/11 07:55:56;;;;;;;6.23;3.43;;;;;;;-143.84;37.21;44900.53;5109866;28;20455;-53
2023/06/11 07:58:23;;;;;;;5.10;3.17;;;;;;;-143.84;36.93;44900.53;5109380;28;20520;-53
2023/06/11 08:00:51;;;;;;;9.23;3.73;;;;;;;-143.84;36.96;44913.88;5101773;28;20448;-53
2023/06/11 08:03:18;;;;;;;14.10;3.83;;;;;;;-143.84;36.59;44925.31;5092538;28;20533;-53
2023/06/11 08:05:47;;;;;;;7.80;3.30;;;;;;;-143.84;36.67;44900.53;5105253;28;20446;-53
2023/06/11 08:08:14;;;;;;;7.33;3.37;;;;;;;-143.84;37.16;44906.25;5108972;28;20448;-52
2023/06/11 08:10:44;;;;;;;6.20;2.70;;;;;;;-143.84;38.24;44904.34;5108085;28;20435;-53
2023/06/11 08:13:11;;;;;;;6.60;2.80;;;;;;;-143.84;37.07;44896.75;5107382;28;20961;-53
2023/06/11 08:15:39;;;;;;;5.60;3.13;;;;;;;-143.84;36.50;44908.16;5109043;28;20540;-52
2023/06/11 08:18:06;;;;;;;3.47;2.70;;;;;;;-143.84;35.30;44892.94;5109310;28;20583;-53
2023/06/11 08:20:33;;;;;;;16.63;3.37;;;;;;;-143.84;35.21;44908.16;5109363;28;20493;-52
2023/06/11 08:23:02;;;;;;;4.33;2.50;;;;;;;-143.84;35.39;44902.44;5098840;28;20956;-52
2023/06/11 08:25:29;;;;;;;9.80;4.10;;;;;;;-143.84;36.45;44923.41;5108976;28;20967;-53
2023/06/11 08:27:57;;;;;;;7.20;2.90;;;;;;;-143.84;35.33;44902.44;5108769;28;20432;-53
2023/06/11 08:30:24;;;;;;;7.60;4.40;;;;;;;-143.84;35.56;44944.34;5107588;28;20475;-53
2023/06/11 08:32:51;;;;;;;7.13;3.30;;;;;;;-143.84;35.97;44892.94;5107739;28;20443;-52
2023/06/11 08:35:20;;;;;;;5.30;2.70;;;;;;;-143.84;36.11;44934.81;5109294;28;20447;-52
2023/06/11 08:37:47;;;;;;;8.67;3.80;;;;;;;-143.84;36.46;44942.44;5109124;28;20517;-52
2023/06/11 08:40:16;;;;;;;8.33;3.97;;;;;;;-143.84;37.70;44900.53;5109454;28;20475;-53
2023/06/11 08:42:44;;;;;;;5.17;3.60;;;;;;;-143.84;38.39;44891.03;5100792;28;20968;-53
2023/06/11 08:45:11;;;;;;;9.40;3.57;;;;;;;-143.84;38.32;44927.19;5091732;28;20448;-52
2023/06/11 08:47:40;;;;;;;5.17;3.00;;;;;;;-143.84;38.81;44902.44;5100996;28;20436;-52
2023/06/11 08:50:08;;;;;;;12.17;4.73;;;;;;;-143.84;41.57;44887.22;5093706;28;20539;-52
2023/06/11 08:52:36;;;;;;;6.10;3.90;;;;;;;-143.84;41.11;44913.88;5092866;28;20444;-53
2023/06/11 08:55:03;;;;;;;9.90;3.67;;;;;;;-143.84;40.93;44938.63;5095769;28;20467;-53
2023/06/11 08:57:32;;;;;;;12.03;4.00;;;;;;;-143.84;40.86;44917.69;5095973;28;20987;-53
2023/06/11 08:59:59;;;;;;;12.17;4.10;;;;;;;-143.84;41.58;44908.16;5095768;28;20839;-53
2023/06/11 09:02:27;;;;;;;3.73;3.20;;;;;;;-143.84;39.87;44938.63;5089159;28;20517;-53
2023/06/11 09:04:54;;;;;;;3.83;3.27;;;;;;;-143.84;40.30;44894.84;5108175;28;20949;-53
2023/06/11 09:07:25;;;;;;;7.20;3.17;;;;;;;-143.84;40.88;44917.69;5108695;28;20439;-53
2023/06/11 09:10:02;;;;;;;5.43;2.63;;;;;;;-143.84;40.83;44915.78;5104816;28;20447;-53
2023/06/11 09:12:29;;;;;;;4.93;2.70;;;;;;;-143.84;38.92;44908.16;5106282;28;20846;-53
2023/06/11 09:14:58;;;;;;;5.30;2.53;;;;;;;-143.84;38.48;44934.81;5103916;28;21167;-53
2023/06/11 09:17:26;;;;;;;13.87;3.07;;;;;;;-143.84;39.09;44923.41;5093434;28;20591;-53
2023/06/11 09:19:56;;;;;;;4.53;2.37;;;;;;;-143.84;39.90;44925.31;5090657;28;20441;-53
2023/06/11 09:22:26;;;;;;;4.57;2.70;;;;;;;-143.84;39.26;44902.44;5097687;28;20450;-53
2023/06/11 09:24:53;;;;;;;8.47;3.07;;;;;;;-143.84;39.28;44913.88;5094726;28;20517;-53
2023/06/11 09:27:22;;;;;;;6.13;2.40;;;;;;;-143.84;39.51;44944.34;5102857;28;20439;-53
2023/06/11 09:29:49;;;;;;;5.80;2.67;;;;;;;-143.84;38.83;44931.00;5112391;28;20458;-53
2023/06/11 09:32:18;;;;;;;4.23;2.80;;;;;;;-143.84;39.93;44908.16;5109087;28;20489;-53
2023/06/11 09:34:46;;;;;;;5.00;2.63;;;;;;;-143.84;40.42;44944.34;5101609;28;20455;-53
2023/06/11 09:37:16;;;;;;;6.93;4.00;;;;;;;-143.84;39.66;44965.28;5096876;28;21067;-53
2023/06/11 09:39:45;;;;;;;3.40;2.70;;;;;;;-143.84;39.85;44951.97;5094984;28;20447;-53
2023/06/11 09:42:22;;;;;;;11.47;2.60;;;;;;;-143.84;39.07;44934.81;5096882;28;20459;-53
2023/06/11 09:44:51;;;;;;;10.30;2.40;;;;;;;-143.84;39.22;44919.59;5109900;28;20442;-52
2023/06/11 09:47:20;;;;;;;4.37;2.60;;;;;;;-143.84;39.31;44902.44;5109238;28;20879;-53
2023/06/11 09:49:47;;;;;;;5.07;2.77;;;;;;;-143.84;41.00;44953.88;5111511;28;20444;-52
2023/06/11 09:52:15;;;;;;;6.30;2.70;;;;;;;-143.84;41.68;44910.06;5109267;28;20449;-53
2023/06/11 09:54:44;;;;;;;20.90;3.00;;;;;;;-143.84;40.74;44953.88;5111693;28;20450;-53
2023/06/11 09:57:12;;;;;;;3.43;2.57;;;;;;;-143.84;41.08;44915.78;5108975;28;20520;-53
2023/06/11 09:59:40;;;;;;;5.50;2.80;;;;;;;-143.84;42.17;44955.75;5111546;28;21371;-53
2023/06/11 10:02:08;;;;;;;9.03;2.13;;;;;;;-143.84;40.96;44913.88;5107609;28;20550;-53
2023/06/11 10:04:37;;;;;;;2.73;2.40;;;;;;;-143.84;41.37;44934.81;5097657;28;20455;-53
2023/06/11 10:07:06;;;;;;;3.03;2.53;;;;;;;-143.84;41.48;44940.53;5090325;28;20448;-53
2023/06/11 10:09:34;;;;;;;6.50;3.37;;;;;;;-143.84;42.28;44934.81;5094680;28;20439;-53
2023/06/11 10:12:02;;;;;;;4.33;2.73;;;;;;;-143.84;42.45;44942.44;5091308;28;20447;-53
2023/06/11 10:14:31;;;;;;;9.20;3.10;;;;;;;-143.84;41.95;44919.59;5091678;28;20883;-53
2023/06/11 10:17:02;;;;;;;9.23;3.50;;;;;;;-143.84;41.74;44932.91;5091818;28;20805;-53
2023/06/11 10:19:37;;;;;;;5.00;2.70;;;;;;;-143.84;42.48;44940.53;5091562;28;20534;-53
2023/06/11 10:22:04;;;;;;;8.83;3.07;;;;;;;-143.84;43.53;44951.97;5095642;28;20447;-53
2023/06/11 10:24:31;;;;;;;2.97;2.70;;;;;;;-143.84;42.20;44934.81;5096382;28;20455;-53
2023/06/11 10:27:07;;;;;;;6.47;3.30;;;;;;;-143.84;42.32;44950.06;5094996;28;20448;-53
2023/06/11 10:29:38;;;;;;;13.03;2.83;;;;;;;-143.84;43.10;44944.34;5099567;28;20488;-53
2023/06/11 10:32:15;;;;;;;4.80;2.90;;;;;;;-143.84;43.75;44919.59;5095145;28;20871;-53
2023/06/11 10:34:45;;;;;;;7.30;2.93;;;;;;;-143.84;43.73;44934.81;5093660;28;20463;-53
2023/06/11 10:37:13;;;;;;;8.33;2.60;;;;;;;-143.84;43.84;44929.09;5094120;28;20462;-53
2023/06/11 10:39:51;;;;;;;7.07;3.20;;;;;;;-143.84;44.35;44965.28;5096868;28;20449;-53
2023/06/11 10:42:24;;;;;;;9.67;3.13;;;;;;;-143.84;45.14;44953.88;5096775;28;20446;-53
2023/06/11 10:44:52;;;;;;;7.73;3.17;;;;;;;-143.84;46.71;44957.66;5096300;28;20438;-53
2023/06/11 10:47:19;;;;;;;10.30;4.00;;;;;;;-143.84;47.08;44944.34;5097412;28;20504;-53
2023/06/11 10:49:48;;;;;;;9.10;2.93;;;;;;;-143.84;47.81;44950.06;5098640;28;20451;-53
2023/06/11 10:52:16;;;;;;;6.80;3.30;;;;;;;-143.84;49.09;44951.97;5099867;28;20459;-53
2023/06/11 10:54:44;;;;;;;5.27;2.80;;;;;;;-143.84;49.58;44953.88;5096908;28;20929;-53
2023/06/11 10:57:11;;;;;;;3.57;3.20;;;;;;;-143.84;48.74;44955.75;5096309;28;20492;-52
2023/06/11 10:59:39;;;;;;;8.43;4.03;;;;;;;-143.84;50.42;44980.53;5096644;28;20459;-53
2023/06/11 11:02:13;;;;;;;8.07;3.70;;;;;;;-143.84;51.84;44953.88;5094535;28;20444;-53
2023/06/11 11:04:53;;;;;;;9.50;3.90;;;;;;;-143.84;54.12;44984.31;5099811;28;20452;-52
2023/06/11 11:07:20;;;;;;;7.17;3.20;;;;;;;-143.84;53.61;44942.44;5106694;28;20447;-53
2023/06/11 11:09:47;;;;;;;8.23;3.50;;;;;;;-143.84;52.84;44961.47;5097719;28;20448;-53
2023/06/11 11:12:15;;;;;;;6.07;3.60;;;;;;;-143.84;53.69;45005.28;5105519;28;20444;-53
2023/06/11 11:14:42;;;;;;;12.53;3.20;;;;;;;-143.84;53.17;44972.91;5106636;28;20566;-53
2023/06/11 11:17:09;;;;;;;9.80;2.70;;;;;;;-143.84;55.20;44990.03;5093900;28;20532;-53
2023/06/11 11:19:36;;;;;;;4.70;3.10;;;;;;;-143.84;53.91;44976.72;5099101;28;20988;-53